aviador You're here:

CYHK Decoded Metar

GJOA HAVEN in NU, CANADA
Report Time2018-01-21 06:00:00
UTC Time2018-01-21 06:53:06
Flight Rules mvfr MVFR
Wind340° at 08 kt
W.Decomp.*RWY 31: 6.3 kt HW 4.9 kt RCW
W.Rank340° ranks 1
Current wind is below 340° avg. (14.7)
Visibility4828 m
Phenomena:Haze
Clouds:N/A
Expected CloudBase > 1,600 ft AGL from Temp-Dew spread
CeilingNone
Temp-34°C (ISA -49)
Dew Point-38°C (67% RH)
AAT-40.8°C
QNH1026 hPa
Density Alt-6,759 ft
Elevation151 ft
Report Wrong Elevation
Raw Report
CYHK 210600Z AUTO 34008KT 3SM HZ CLR M34/M38 A3030 RMK SLP272=

Extra information for CYHK:More info

Metar Taf Metar & Taf Last 4 Metars F.Rules Stats Wind Profile Meteogram Temp Stats Airport Information Weather charts Add Link Nearby VenuesMetar ALERT Operation Metar Decoded Social comments